East Wellington, Utah
Current Conditions -  °F | °C
As of 2:53 PM on Friday 24 Oct 2014 (Local Time) from KPUC Reporting Station
Clear Clear  
Wind Chill: 67°   Ceiling: Unl
Heat Index: 67°   Visibility: 10mi
Dew Point: 30°   Wind: 5mph
Humidity: 25%   Direction: NA
Pressure: 30.27"   Gusts: NA
Location:  39.5265°N, 110.7°W
Report Text: KPUC 242053Z AUTO VRB04KT 10SM CLR 19/M01 A3027 RMK AO2 SLP214 T01941011 58018 TSNO
Loading
Personal Weather Stations






























Interactive Weather Map
Tropical Storm Tracking
New forecast layout! Learn more

10-Day Weather Forecast

Advertisements
Track Severe Weather on mobile